createdAt,value
2019-02-24T00:01:34.798Z,103345.22
2019-02-24T00:04:48.616Z,103343.05
2019-02-24T00:08:03.056Z,103338.65
2019-02-24T00:11:16.912Z,103334.74
2019-02-24T00:14:30.743Z,103339.50
2019-02-24T00:17:44.587Z,103333.84
2019-02-24T00:20:58.487Z,103341.23
2019-02-24T00:24:12.335Z,103338.54
2019-02-24T00:27:26.202Z,103347.75
2019-02-24T00:30:40.155Z,103349.62
2019-02-24T00:33:54.007Z,103348.36
2019-02-24T00:37:07.884Z,103347.85
2019-02-24T00:40:21.706Z,103348.30
2019-02-24T00:43:35.557Z,103357.12
2019-02-24T00:46:49.440Z,103352.78
2019-02-24T00:50:06.177Z,103355.35
2019-02-24T00:53:20.035Z,103350.48
2019-02-24T00:56:33.865Z,103345.33
2019-02-24T00:59:47.710Z,103344.46
2019-02-24T01:03:01.585Z,103342.84
2019-02-24T01:06:15.526Z,103338.13
2019-02-24T01:09:29.483Z,103340.73
2019-02-24T01:12:43.611Z,103344.27
2019-02-24T01:15:57.420Z,103345.63
2019-02-24T01:19:11.296Z,103341.67
2019-02-24T01:22:25.112Z,103336.11
2019-02-24T01:25:39.113Z,103330.44
2019-02-24T01:28:52.963Z,103334.75
2019-02-24T01:32:06.784Z,103334.84
2019-02-24T01:35:20.741Z,103338.75
2019-02-24T01:38:34.587Z,103338.34
2019-02-24T01:41:48.422Z,103336.06
2019-02-24T01:45:03.774Z,103334.84
2019-02-24T01:48:17.619Z,103335.20
2019-02-24T01:51:31.472Z,103328.17
2019-02-24T01:54:45.336Z,103326.05
2019-02-24T01:57:59.166Z,103326.90
2019-02-24T02:01:13.122Z,103319.27
2019-02-24T02:04:26.961Z,103317.09
2019-02-24T02:07:40.792Z,103309.96
2019-02-24T02:10:54.620Z,103314.22
2019-02-24T02:14:08.474Z,103316.95
2019-02-24T02:17:22.293Z,103314.72
2019-02-24T02:20:36.270Z,103313.80
2019-02-24T02:23:50.087Z,103309.91
2019-02-24T02:27:03.954Z,103315.06
2019-02-24T02:30:17.915Z,103312.84
2019-02-24T02:33:31.724Z,103308.95
2019-02-24T02:36:45.583Z,103306.61
2019-02-24T02:39:59.522Z,103304.95
2019-02-24T02:43:13.357Z,103302.36
2019-02-24T02:46:27.255Z,103291.85
2019-02-24T02:49:41.143Z,103289.16
2019-02-24T02:52:54.968Z,103292.25
2019-02-24T02:56:08.841Z,103297.21
2019-02-24T02:59:22.801Z,103301.67
2019-02-24T03:02:36.760Z,103300.30
2019-02-24T03:05:55.440Z,103296.05
2019-02-24T03:09:10.283Z,103295.25
2019-02-24T03:12:24.121Z,103296.26
2019-02-24T03:15:38.054Z,103295.19
2019-02-24T03:18:51.913Z,103292.62
2019-02-24T03:22:05.820Z,103303.64
2019-02-24T03:25:19.653Z,103298.89
2019-02-24T03:28:33.487Z,103300.70
2019-02-24T03:31:47.320Z,103307.33
2019-02-24T03:35:01.172Z,103315.70
2019-02-24T03:38:15.007Z,103317.89
2019-02-24T03:41:28.845Z,103322.28
2019-02-24T03:44:42.673Z,103320.11
2019-02-24T03:47:56.526Z,103319.80
2019-02-24T03:51:10.341Z,103321.97
2019-02-24T03:54:24.182Z,103319.88
2019-02-24T03:57:38.095Z,103328.75
2019-02-24T04:00:51.944Z,103325.79
2019-02-24T04:04:05.996Z,103327.22
2019-02-24T04:07:19.858Z,103328.57
2019-02-24T04:10:33.691Z,103329.92
2019-02-24T04:13:47.655Z,103331.20
2019-02-24T04:17:01.473Z,103343.89
2019-02-24T04:20:15.321Z,103347.48
2019-02-24T04:23:29.159Z,103348.00
2019-02-24T04:26:43.045Z,103350.69
2019-02-24T04:29:56.893Z,103358.15
2019-02-24T04:33:10.734Z,103345.47
2019-02-24T04:36:24.597Z,103345.47
2019-02-24T04:39:38.424Z,103345.05
2019-02-24T04:42:52.260Z,103340.27
2019-02-24T04:46:06.487Z,103344.66
2019-02-24T04:49:20.312Z,103347.73
2019-02-24T04:52:34.157Z,103348.19
2019-02-24T04:55:47.992Z,103362.68
2019-02-24T04:59:01.830Z,103361.44
2019-02-24T05:02:15.680Z,103361.44
2019-02-24T05:05:29.526Z,103370.69
2019-02-24T05:08:43.365Z,103370.33
2019-02-24T05:11:57.196Z,103367.33
2019-02-24T05:15:11.037Z,103369.53
2019-02-24T05:18:24.894Z,103356.87
2019-02-24T05:21:38.745Z,103364.76
2019-02-24T05:24:53.043Z,103358.63
2019-02-24T05:28:06.886Z,103355.14
2019-02-24T05:31:20.716Z,103349.45
2019-02-24T05:34:34.612Z,103362.56
2019-02-24T05:37:48.455Z,103356.05
2019-02-24T05:41:02.286Z,103353.88
2019-02-24T05:44:16.140Z,103359.61
2019-02-24T05:47:29.990Z,103358.28
2019-02-24T05:50:43.795Z,103357.41
2019-02-24T05:53:57.643Z,103363.11
2019-02-24T05:57:11.475Z,103361.80
2019-02-24T06:00:25.382Z,103360.06
2019-02-24T06:03:39.226Z,103358.33
2019-02-24T06:06:53.048Z,103357.90
2019-02-24T06:10:07.004Z,103351.34
2019-02-24T06:13:20.847Z,103343.92
2019-02-24T06:16:34.684Z,103345.65
2019-02-24T06:19:48.519Z,103351.29
2019-02-24T06:23:02.392Z,103350.39
2019-02-24T06:26:16.350Z,103351.72
2019-02-24T06:29:30.195Z,103354.31
2019-02-24T06:32:44.021Z,103355.59
2019-02-24T06:35:57.883Z,103349.05
2019-02-24T06:39:11.721Z,103351.64
2019-02-24T06:42:25.570Z,103360.34
2019-02-24T06:45:39.434Z,103362.02
2019-02-24T06:48:53.369Z,103358.03
2019-02-24T06:52:07.220Z,103361.47
2019-02-24T06:55:21.065Z,103364.08
2019-02-24T06:58:34.885Z,103358.30
2019-02-24T07:01:48.752Z,103358.66
2019-02-24T07:05:05.376Z,103366.44
2019-02-24T07:08:19.250Z,103365.03
2019-02-24T07:11:33.105Z,103371.95
2019-02-24T07:14:46.956Z,103373.16
2019-02-24T07:18:01.093Z,103371.78
2019-02-24T07:21:15.052Z,103371.59
2019-02-24T07:24:28.892Z,103367.44
2019-02-24T07:27:43.268Z,103367.27
2019-02-24T07:30:57.078Z,103368.41
2019-02-24T07:34:10.934Z,103375.83
2019-02-24T07:37:24.902Z,103377.41
2019-02-24T07:40:38.709Z,103378.17
2019-02-24T07:43:52.567Z,103379.37
2019-02-24T07:47:06.452Z,103385.41
2019-02-24T07:50:20.331Z,103383.19
2019-02-24T07:53:34.191Z,103385.82
2019-02-24T07:56:48.135Z,103379.91
2019-02-24T08:00:02.496Z,103370.52
2019-02-24T08:03:16.348Z,103362.48
2019-02-24T08:06:30.180Z,103366.03
2019-02-24T08:09:44.200Z,103366.03
2019-02-24T08:12:58.053Z,103367.92
2019-02-24T08:16:11.899Z,103365.21
2019-02-24T08:19:25.731Z,103364.53
2019-02-24T08:22:39.621Z,103359.06
2019-02-24T08:25:53.508Z,103355.27
2019-02-24T08:29:07.400Z,103358.09
2019-02-24T08:32:21.221Z,103358.86
2019-02-24T08:35:35.069Z,103364.27
2019-02-24T08:38:48.931Z,103365.83
2019-02-24T08:42:02.751Z,103379.19
2019-02-24T08:45:16.727Z,103372.27
2019-02-24T08:48:30.549Z,103369.02
2019-02-24T08:51:44.413Z,103379.02
2019-02-24T08:54:58.575Z,103379.61
2019-02-24T08:58:12.504Z,103388.86
2019-02-24T09:01:26.364Z,103389.45
2019-02-24T09:04:40.313Z,103397.10
2019-02-24T09:07:54.153Z,103400.96
2019-02-24T09:11:08.066Z,103401.21
2019-02-24T09:14:21.893Z,103400.97
2019-02-24T09:17:35.750Z,103396.69
2019-02-24T09:20:49.616Z,103404.85
2019-02-24T09:24:03.587Z,103406.91
2019-02-24T09:27:17.458Z,103411.65
2019-02-24T09:30:31.309Z,103417.08
2019-02-24T09:33:45.240Z,103417.11
2019-02-24T09:36:59.091Z,103422.57
2019-02-24T09:40:13.138Z,103425.53
2019-02-24T09:43:27.015Z,103428.80
2019-02-24T09:46:40.909Z,103433.00
2019-02-24T09:49:54.741Z,103433.98
2019-02-24T09:53:08.594Z,103436.95
2019-02-24T09:56:22.485Z,103432.76
2019-02-24T09:59:36.297Z,103431.83
2019-02-24T10:02:50.192Z,103429.11
2019-02-24T10:06:04.220Z,103435.99
2019-02-24T10:09:18.330Z,103433.16
2019-02-24T10:12:32.474Z,103437.09
2019-02-24T10:15:46.319Z,103435.72
2019-02-24T10:19:00.280Z,103439.34
2019-02-24T10:22:14.189Z,103441.31
2019-02-24T10:25:28.189Z,103430.31
2019-02-24T10:28:42.041Z,103424.70
2019-02-24T10:31:55.972Z,103418.02
2019-02-24T10:35:09.920Z,103415.84
2019-02-24T10:38:23.791Z,103420.47
2019-02-24T10:41:37.658Z,103420.77
2019-02-24T10:44:51.596Z,103413.37
2019-02-24T10:48:13.778Z,103411.36
2019-02-24T10:51:21.256Z,103408.41
2019-02-24T10:54:35.099Z,103410.03
2019-02-24T10:57:48.948Z,103401.94
2019-02-24T11:01:03.728Z,103402.61
2019-02-24T11:04:17.711Z,103403.72
2019-02-24T11:07:31.535Z,103394.71
2019-02-24T11:10:45.443Z,103402.70
2019-02-24T11:13:59.386Z,103396.19
2019-02-24T11:17:13.345Z,103390.31
2019-02-24T11:20:27.209Z,103384.06
2019-02-24T11:23:41.166Z,103385.87
2019-02-24T11:26:55.012Z,103383.05
2019-02-24T11:30:12.917Z,103381.84
2019-02-24T11:33:26.913Z,103376.31
2019-02-24T11:36:40.778Z,103381.72
2019-02-24T11:39:54.639Z,103379.62
2019-02-24T11:43:08.502Z,103371.14
2019-02-24T11:46:22.419Z,103370.17
2019-02-24T11:49:36.254Z,103366.63
2019-02-24T11:52:50.251Z,103362.86
2019-02-24T11:56:04.085Z,103363.00
2019-02-24T11:59:18.178Z,103371.86
2019-02-24T12:02:34.744Z,103366.08
2019-02-24T12:05:48.033Z,103369.03
2019-02-24T12:09:05.211Z,103369.55
2019-02-24T12:12:17.873Z,103367.69
2019-02-24T12:15:31.801Z,103359.22
2019-02-24T12:18:45.672Z,103352.12
2019-02-24T12:21:59.548Z,103343.03
2019-02-24T12:25:13.470Z,103341.05
2019-02-24T12:28:27.317Z,103337.78
2019-02-24T12:31:41.157Z,103323.51
2019-02-24T12:34:55.012Z,103331.23
2019-02-24T12:38:08.904Z,103326.89
2019-02-24T12:41:22.982Z,103331.45
2019-02-24T12:44:36.953Z,103329.03
2019-02-24T12:47:50.834Z,103326.59
2019-02-24T12:51:04.776Z,103333.80
2019-02-24T12:54:18.758Z,103325.47
2019-02-24T12:57:32.599Z,103322.61
2019-02-24T13:00:46.846Z,103322.78
2019-02-24T13:04:00.689Z,103308.65
2019-02-24T13:07:15.081Z,103306.41
2019-02-24T13:10:29.253Z,103295.17
2019-02-24T13:13:43.084Z,103297.13
2019-02-24T13:16:57.388Z,103287.59
2019-02-24T13:20:11.583Z,103285.88
2019-02-24T13:23:25.425Z,103286.63
2019-02-24T13:26:39.419Z,103290.35
2019-02-24T13:29:53.248Z,103284.76
2019-02-24T13:33:08.765Z,103283.08
2019-02-24T13:36:22.616Z,103272.34
2019-02-24T13:39:36.483Z,103274.37
2019-02-24T13:42:50.317Z,103268.54
2019-02-24T13:46:04.284Z,103259.53
2019-02-24T13:49:18.146Z,103254.64
2019-02-24T13:52:32.032Z,103254.25
2019-02-24T13:55:45.926Z,103251.59
2019-02-24T13:58:59.870Z,103260.30
2019-02-24T14:02:13.737Z,103249.71
2019-02-24T14:05:27.568Z,103243.55
2019-02-24T14:08:41.553Z,103247.64
2019-02-24T14:11:55.433Z,103240.80
2019-02-24T14:15:13.249Z,103238.01
2019-02-24T14:18:27.089Z,103235.60
2019-02-24T14:21:40.943Z,103238.05
2019-02-24T14:24:54.804Z,103230.70
2019-02-24T14:28:10.000Z,103236.20
2019-02-24T14:31:23.828Z,103231.50
2019-02-24T14:34:37.784Z,103236.61
2019-02-24T14:37:51.629Z,103239.72
2019-02-24T14:41:05.485Z,103226.41
2019-02-24T14:44:19.375Z,103227.21
2019-02-24T14:47:33.309Z,103225.44
2019-02-24T14:50:47.194Z,103222.65
2019-02-24T14:54:01.070Z,103223.33
2019-02-24T14:57:14.920Z,103216.73
2019-02-24T15:00:28.887Z,103223.96
2019-02-24T15:03:42.791Z,103218.77
2019-02-24T15:06:56.731Z,103214.53
2019-02-24T15:10:16.334Z,103212.80
2019-02-24T15:13:30.331Z,103224.03
2019-02-24T15:16:44.160Z,103218.94
2019-02-24T15:19:58.032Z,103230.06
2019-02-24T15:23:11.879Z,103223.27
2019-02-24T15:26:25.862Z,103216.44
2019-02-24T15:29:39.738Z,103218.11
2019-02-24T15:32:53.679Z,103220.05
2019-02-24T15:36:07.771Z,103231.64
2019-02-24T15:39:21.711Z,103235.20
2019-02-24T15:42:35.553Z,103246.27
2019-02-24T15:45:49.427Z,103242.82
2019-02-24T15:49:03.314Z,103248.86
2019-02-24T15:52:17.163Z,103244.89
2019-02-24T15:55:31.179Z,103249.00
2019-02-24T15:58:45.075Z,103246.22
2019-02-24T16:01:58.930Z,103241.49
2019-02-24T16:05:12.864Z,103249.30
2019-02-24T16:08:26.727Z,103249.95
2019-02-24T16:11:40.592Z,103249.02
2019-02-24T16:14:56.471Z,103251.38
2019-02-24T16:18:10.469Z,103256.80
2019-02-24T16:21:24.359Z,103254.06
2019-02-24T16:24:38.284Z,103258.72
2019-02-24T16:27:53.379Z,103251.23
2019-02-24T16:31:07.392Z,103249.48
2019-02-24T16:34:21.340Z,103250.03
2019-02-24T16:37:35.527Z,103246.74
2019-02-24T16:40:49.492Z,103239.50
2019-02-24T16:44:03.675Z,103242.59
2019-02-24T16:47:17.593Z,103248.81
2019-02-24T16:50:31.480Z,103249.83
2019-02-24T16:53:45.355Z,103251.58
2019-02-24T16:57:05.107Z,103246.81
2019-02-24T17:00:21.713Z,103244.05
2019-02-24T17:03:36.116Z,103257.27
2019-02-24T17:06:49.953Z,103263.38
2019-02-24T17:10:10.143Z,103265.98
2019-02-24T17:13:24.033Z,103266.68
2019-02-24T17:16:38.090Z,103272.91
2019-02-24T17:19:52.009Z,103273.54
2019-02-24T17:23:05.980Z,103277.31
2019-02-24T17:26:19.876Z,103281.45
2019-02-24T17:29:33.757Z,103278.98
2019-02-24T17:32:47.635Z,103287.02
2019-02-24T17:36:01.575Z,103294.52
2019-02-24T17:39:15.549Z,103287.92
2019-02-24T17:42:29.410Z,103289.72
2019-02-24T17:45:44.877Z,103294.02
2019-02-24T17:48:59.226Z,103293.98
2019-02-24T17:52:13.109Z,103299.92
2019-02-24T17:55:27.077Z,103301.80
2019-02-24T17:58:41.020Z,103299.48
2019-02-24T18:01:54.883Z,103303.58
2019-02-24T18:05:08.754Z,103307.75
2019-02-24T18:08:28.281Z,103303.27
2019-02-24T18:11:38.977Z,103309.41
2019-02-24T18:14:52.811Z,103306.20
2019-02-24T18:18:06.784Z,103301.57
2019-02-24T18:21:20.693Z,103307.82
2019-02-24T18:24:34.586Z,103304.98
2019-02-24T18:27:48.588Z,103305.63
2019-02-24T18:31:02.523Z,103308.46
2019-02-24T18:34:16.519Z,103306.59
2019-02-24T18:37:30.382Z,103304.37
2019-02-24T18:40:44.351Z,103305.14
2019-02-24T18:43:58.248Z,103304.16
2019-02-24T18:47:12.333Z,103301.16
2019-02-24T18:50:26.264Z,103306.25
2019-02-24T18:53:40.151Z,103300.71
2019-02-24T18:56:54.003Z,103303.12
2019-02-24T19:00:17.133Z,103296.17
2019-02-24T19:03:31.015Z,103297.94
2019-02-24T19:06:44.883Z,103297.76
2019-02-24T19:09:58.793Z,103293.86
2019-02-24T19:13:12.771Z,103295.32
2019-02-24T19:16:26.848Z,103287.41
2019-02-24T19:19:40.744Z,103284.72
2019-02-24T19:22:54.707Z,103289.80
2019-02-24T19:26:08.910Z,103291.70
2019-02-24T19:29:22.898Z,103300.83
2019-02-24T19:32:36.766Z,103301.46
2019-02-24T19:35:50.792Z,103305.73
2019-02-24T19:39:05.562Z,103309.68
2019-02-24T19:42:19.548Z,103320.13
2019-02-24T19:45:33.535Z,103319.44
2019-02-24T19:48:47.445Z,103331.94
2019-02-24T19:52:01.345Z,103333.08
2019-02-24T19:55:16.533Z,103334.72
2019-02-24T19:58:30.508Z,103345.60
2019-02-24T20:01:44.392Z,103349.72
2019-02-24T20:04:58.334Z,103360.02
2019-02-24T20:08:12.290Z,103367.27
2019-02-24T20:11:26.174Z,103374.94
2019-02-24T20:14:41.451Z,103377.12
2019-02-24T20:17:55.327Z,103389.88
2019-02-24T20:21:09.346Z,103388.38
2019-02-24T20:24:23.285Z,103381.64
2019-02-24T20:27:37.223Z,103382.59
2019-02-24T20:30:51.194Z,103381.20
2019-02-24T20:34:05.179Z,103389.28
2019-02-24T20:37:19.258Z,103385.36
2019-02-24T20:40:33.113Z,103393.53
2019-02-24T20:43:47.072Z,103395.44
2019-02-24T20:47:02.256Z,103394.27
2019-02-24T20:50:25.172Z,103399.33
2019-02-24T20:53:39.057Z,103402.08
2019-02-24T20:56:53.030Z,103415.98
2019-02-24T21:00:16.707Z,103415.69
2019-02-24T21:03:30.801Z,103411.92
2019-02-24T21:06:44.665Z,103418.64
2019-02-24T21:09:58.532Z,103416.95
2019-02-24T21:13:12.395Z,103413.52
2019-02-24T21:16:26.477Z,103415.88
2019-02-24T21:19:40.335Z,103411.22
2019-02-24T21:22:54.377Z,103405.92
2019-02-24T21:26:08.301Z,103411.62
2019-02-24T21:29:22.288Z,103398.95
2019-02-24T21:32:36.213Z,103398.62
2019-02-24T21:35:50.069Z,103403.37
2019-02-24T21:39:04.575Z,103400.90
2019-02-24T21:42:18.444Z,103400.90
2019-02-24T21:45:32.416Z,103404.48
2019-02-24T21:48:46.568Z,103402.39
2019-02-24T21:52:00.404Z,103393.83
2019-02-24T21:55:14.700Z,103395.08
2019-02-24T21:58:28.513Z,103388.05
2019-02-24T22:01:42.375Z,103387.23
2019-02-24T22:04:56.340Z,103386.84
2019-02-24T22:08:10.187Z,103383.91
2019-02-24T22:11:24.166Z,103386.67
2019-02-24T22:14:38.020Z,103385.84
2019-02-24T22:17:51.933Z,103382.40
2019-02-24T22:21:05.800Z,103379.81
2019-02-24T22:24:19.609Z,103378.91
2019-02-24T22:27:33.493Z,103373.23
2019-02-24T22:30:47.441Z,103382.53
2019-02-24T22:34:01.301Z,103377.78
2019-02-24T22:37:15.248Z,103385.77
2019-02-24T22:40:29.237Z,103382.27
2019-02-24T22:43:43.072Z,103382.34
2019-02-24T22:46:57.368Z,103388.94
2019-02-24T22:50:12.334Z,103384.30
2019-02-24T22:53:26.181Z,103379.55
2019-02-24T22:56:40.038Z,103381.34
2019-02-24T22:59:53.856Z,103378.89
2019-02-24T23:03:07.818Z,103376.77
2019-02-24T23:06:21.795Z,103384.28
2019-02-24T23:09:35.658Z,103391.89
2019-02-24T23:12:49.515Z,103387.08
2019-02-24T23:16:03.449Z,103386.69
2019-02-24T23:19:17.310Z,103388.57
2019-02-24T23:22:31.185Z,103395.67
2019-02-24T23:25:45.159Z,103395.22
2019-02-24T23:28:59.396Z,103394.88
2019-02-24T23:32:13.326Z,103389.26
2019-02-24T23:35:27.344Z,103393.21
2019-02-24T23:38:41.197Z,103391.98
2019-02-24T23:41:55.011Z,103392.09
2019-02-24T23:45:11.366Z,103395.73
2019-02-24T23:48:25.323Z,103388.75
2019-02-24T23:51:39.146Z,103393.56
2019-02-24T23:54:53.115Z,103393.16
2019-02-24T23:58:06.931Z,103392.75
